Information Last Ob Photographs Calibration Meteogram Network Table Neighbors Monthly Summaries Observation History Wind Roses Custom Wind Roses Data Calendar Satellite Cloud Product Download

Satellite Cloud Product

NESDIS produces a Satellite Cloud Product (SCP) that supplements the ASOS ceilometer readings. This page merges the SCP data with the METAR observations for a given UTC date. Cloud level values are presented in feet above ground level. ECA represents estimated cloud amount expressed in percentage. An IEM Web Service provided the following JSON dataset for this page. Data is available for some sites back to 1993.

Year: Month: Day: Time Order:

 

SCP Valid UTCSatellite East SounderSatellite West SounderASOS METAR Report
Mid CloudsHigh CloudsLevels [ft]ECA [%]Mid CloudsHigh CloudsLevels [ft]ECA [%]Levels ftMETAR
0050ZCLR-0CLR-0CLR KDNS 290055Z AUTO 17005KT 10SM CLR M04/M17 A3028 RMK AO2
0150ZCLR-0CLR-0CLR KDNS 290155Z AUTO 17007KT 10SM CLR M04/M16 A3028 RMK AO2
0250ZCLR-0CLR-0CLR KDNS 290255Z AUTO 17007KT 10SM CLR M04/M16 A3026 RMK AO2
0350ZCLR-0CLR-0CLR KDNS 290355Z AUTO 18009KT 10SM CLR M04/M16 A3026 RMK AO2
0450ZCLR-0SCT13000 - 130000CLR KDNS 290455Z AUTO 19009KT 10SM CLR M04/M15 A3026 RMK AO2
0550ZCLR-0SCT13000 - 140000CLR KDNS 290555Z AUTO 18006KT 10SM CLR M04/M14 A3025 RMK AO2
0650ZCLR-0CLR-0CLR KDNS 290655Z AUTO 18009KT 10SM CLR M03/M13 A3025 RMK AO2